メインページ
METAR-TAF:

METAR-TAF

空港 :

ヘラート, アフガニスタン

緯度: 34-13N, 経度: 062-13E, 海抜: 964m

現時点の気象観測

当レポートは17分前の07:55(UTC)に作成
北/北東の風 7kt
気温 14°C
湿度 44%
気圧 1016 hPa
視程10km以上
高度4000ftの雲は散在している

METAR: OAHR 190755Z 02007KT 9999 SCT040 14/02 Q1016 RMK A3001 BLU

時間: 12:42 (08:12 UTC)

予報

当レポートは3時間12分前の05:00(UTC)に作成
予報は19日の 06時(UTC)から 20日の 06時(UTC)まで有効
南/南東の風 9kt
視程10km以上
高度5000ftの雲はほとんどない
高度9000ftの雲は散在している
19日の 08時(UTC)から 19日の 10時(UTC)まで徐々に
西/南西の風 13kt
視程10km以上
高度5000ftの雲は散在している
高度9000ftの千切れ雲あり
近辺でにわか雨
19日の 12時(UTC)から 19日の 14時(UTC)まで徐々に
南西の風 8kt
視程10km以上
高度6000ftの雲はほとんどない
高度9000ftの雲は散在している
19日の 15時(UTC)から 19日の 17時(UTC)まで徐々に
変向風 3kt
視程10km以上
高度9000ftの千切れ雲あり
19日の 22時(UTC)から 19日の 24時(UTC)まで徐々に
北/北東の風 5kt
視程10km以上
1,500メートル以下は雲なし、積乱雲なし

TAF: OAHR 190500Z 1906/2006 16009KT 9999 FEW050 SCT090 BECMG 1908/1910 24013KT 9999 VCSH SCT050 BKN090 BECMG 1912/1914 22008KT 9999 FEW060 SCT090 BECMG 1915/1917 VRB03KT 9999 BKN090 BECMG 1922/1924 02005KT CAVOK

4,000以上の空港の気象観測と天気予報(METAR報とTAF報)

利用可能な観測所は地図上に黄色い丸と赤い丸で示す。

丸の上にカーソルを重ねると観測所名を参照できる。

次にクリックすると気象観測と天気予報を参照できる。

マップの切り替え:黒色「×」印の緑ボタンをクリックして拡大、「-」印の緑ボタンをクリックして縮小、緑色の三角印をクリックして隣りの地図に切り替え


METAR-TAF: